Amberley, Queensland

7:12 PM AEST on May 27, 2015 (GMT +1000)
Amberley Military | | Change Station
CLOSE
Current Station
Airport
Location: Amberley Military,
Elevation: 79 ft
Nearby Weather Stations

Elev 79 ft 27.63 °S, 152.71 °E | Updated 12 minutes ago

Scattered Clouds
Scattered Clouds
59 °F
Feels Like 59 °F
N
6
Wind Variable Wind from East

Today
High -- | Low -- °F
--% Chance of Precip.
Yesterday
High -- | Low -- °F
Precip. -- in
6:28 AM 5:03 PM
Waxing Gibbous, 65% visible
Pressure 30.18 in
Visibility 6.2 miles
Clouds Few 3700 ft
Scattered Clouds 25000 ft
Dew Point 54 °F
Humidity 82%
Rainfall 0.00 in
Snow Depth Not available.
UV 0 out of 12
Pollen Not available.
Air Quality Not available.
Flu Activity Not available.
METAR YAMB 270900Z 10005KT 9999 FEW037 SCT250 15/12 Q1022 NOSIG

More Conditions Fewer Conditions

Pressure 30.18 in
Visibility 6.2 miles
Clouds Few 3700 ft
Scattered Clouds 25000 ft
Dew Point 54 °F
Humidity 82%
Rainfall 0.00 in
Snow Depth Not available.
UV 0 out of 12
Pollen Not available.
Air Quality Not available.
Flu Activity Not available.
METAR YAMB 270900Z 10005KT 9999 FEW037 SCT250 15/12 Q1022 NOSIG

More Conditions Fewer Conditions

10-Day Weather Forecast

Almanac

Astronomy

May. 27, 2015 Rise Set
Actual Time
Civil Twilight
Nautical Twilight
Astronomical Twilight
Moon
Length of Visible Light
Length of Day
Tomorrow will be .
, % of the Moon is Illuminated

Today's Extremes

Country Highs Country Lows

Community

WunderPhotos

Upload Photos

1,824,634 photos uploaded!

WunderBlogs® & News

Nearby

Air Quality

  Air Quality AQ Index Pollutant
Not available.

Snow Depth

Station Depth Elevation

Earthquake Activity

City Distance Mag. Time & Date
Minimum magnitude displayed is 2.5.

Coastal Water Temperatures

Place Temperature

Stations

Nearby Weather Stations

Station Location Temp. Windchill Dew Point Humidity Wind Precip. Elev Updated Type